2019/05/24 15:30 YSSY 241530Z 30008KT CAVOK 15/10 Q1020 NOSIG
2019/05/24 15:30 YMML 241530Z 36012KT CAVOK 14/10 Q1014 FM1530 MOD TURB BLW 5000FT
2019/05/24 15:30 YSCB 241530Z AUTO 15004KT 110V220 9999 // NCD 04/04 Q1022 RF00.0/000.0
2019/05/24 15:41 YPAD 241541Z 02007KT 9999 BKN014 13/12 Q1017
2019/05/24 15:30 YPPH 241530Z 08005KT 9999 BKN040 12/11 Q1024 NOSIG
2019/05/24 15:30 YBBN 241530Z 21007KT CAVOK 14/14 Q1021 NOSIG
2019/05/24 15:30 YMHB 241530Z 32013KT 9999 FEW035 SCT050 14/06 Q1004 RF00.0/000.0
2019/05/24 15:30 NZAA 241530Z AUTO 12003KT 9999 NCD 11/11 Q1025 TEMPO 2000 BR
2019/05/24 15:30 NZCH 241530Z AUTO 02003KT 0150 R02/0500N R20/0550D -RA FG VV002 07/07 Q1020 NOSIG

Powered by MinhViet JSC.